Terminal Aerodrome Forecast
Issued by NWS Grand Forks, ND

Home | Current Version | Previous Version | Graphics & Text | Print | Product List | Glossary On
Versions: 1 2 3 4 5 6 7 8 9 10 11 12 13 14 15 16 17 18 19 20 21 22 23 24 25
908
FTUS43 KFGF 261732
TAFGFK
TAF
KGFK 261732Z 2618/2718 18008KT P6SM BKN007
     FM261900 00000KT P6SM BKN110
     FM271200 VRB03KT P6SM BKN015
     FM271500 07004KT P6SM BKN070=

USA.gov is the U.S. government's official web portal to all federal, state and local government web resources and services.